createdAt,value
2022-11-12T00:00:54.166Z,26.40
2022-11-12T00:03:21.962Z,28.90
2022-11-12T00:05:48.714Z,31.60
2022-11-12T00:08:15.597Z,32.85
2022-11-12T00:10:42.111Z,35.80
2022-11-12T00:13:08.719Z,100.80
2022-11-12T00:15:35.351Z,101.68
2022-11-12T00:18:01.733Z,62.17
2022-11-12T00:20:28.119Z,51.75
2022-11-12T00:22:55.088Z,35.85
2022-11-12T00:25:21.508Z,41.85
2022-11-12T00:27:48.171Z,39.83
2022-11-12T00:30:14.668Z,46.33
2022-11-12T00:32:41.125Z,41.03
2022-11-12T00:35:12.457Z,38.97
2022-11-12T00:37:40.415Z,36.15
2022-11-12T00:40:07.700Z,35.50
2022-11-12T00:42:34.135Z,28.20
2022-11-12T00:45:00.734Z,28.33
2022-11-12T00:47:27.387Z,30.13
2022-11-12T00:49:54.059Z,29.10
2022-11-12T00:52:20.582Z,29.63
2022-11-12T00:54:46.904Z,28.93
2022-11-12T00:57:13.531Z,28.87
2022-11-12T00:59:40.142Z,27.87
2022-11-12T01:02:06.633Z,25.47
2022-11-12T01:04:33.278Z,28.83
2022-11-12T01:07:00.026Z,33.63
2022-11-12T01:09:26.516Z,25.80
2022-11-12T01:11:52.972Z,24.33
2022-11-12T01:14:19.481Z,31.83
2022-11-12T01:16:46.116Z,27.30
2022-11-12T01:19:13.084Z,30.00
2022-11-12T01:21:43.040Z,29.40
2022-11-12T01:24:10.403Z,23.27
2022-11-12T01:26:37.582Z,25.17
2022-11-12T01:29:04.602Z,27.77
2022-11-12T01:31:36.467Z,22.17
2022-11-12T01:34:08.433Z,19.83
2022-11-12T01:36:39.221Z,20.23
2022-11-12T01:41:35.328Z,39.60
2022-11-12T01:44:16.959Z,33.77
2022-11-12T01:46:58.686Z,53.33
2022-11-12T01:49:31.796Z,41.90
2022-11-12T01:52:09.678Z,53.08
2022-11-12T01:54:36.911Z,31.27
2022-11-12T01:57:03.956Z,25.10
2022-11-12T01:59:37.795Z,22.95
2022-11-12T02:02:04.698Z,22.30
2022-11-12T02:04:33.458Z,34.97
2022-11-12T02:07:01.963Z,31.25
2022-11-12T02:09:29.738Z,23.53
2022-11-12T02:11:56.413Z,35.85
2022-11-12T02:14:22.842Z,25.33
2022-11-12T02:16:50.088Z,30.83
2022-11-12T02:19:17.577Z,38.78
2022-11-12T02:21:44.045Z,44.90
2022-11-12T02:24:15.705Z,31.05
2022-11-12T02:26:47.301Z,62.50
2022-11-12T02:29:13.945Z,24.05
2022-11-12T02:31:40.432Z,58.05
2022-11-12T02:34:06.777Z,33.42
2022-11-12T02:36:33.538Z,33.13
2022-11-12T02:39:00.152Z,35.10
2022-11-12T02:41:26.671Z,32.88
2022-11-12T02:43:53.363Z,44.25
2022-11-12T02:46:20.035Z,34.35
2022-11-12T02:48:46.601Z,58.50
2022-11-12T02:51:13.065Z,54.58
2022-11-12T02:53:39.429Z,58.85
2022-11-12T02:56:06.108Z,48.43
2022-11-12T02:58:32.950Z,27.48
2022-11-12T03:00:59.474Z,27.00
2022-11-12T03:03:26.128Z,26.57
2022-11-12T03:06:00.903Z,20.05
2022-11-12T03:08:28.066Z,22.03
2022-11-12T03:10:54.797Z,32.50
2022-11-12T03:13:21.574Z,19.97
2022-11-12T03:15:47.951Z,44.50
2022-11-12T03:18:14.405Z,32.40
2022-11-12T03:20:40.867Z,32.00
2022-11-12T03:23:10.270Z,37.78
2022-11-12T03:25:37.340Z,26.23
2022-11-12T03:28:09.370Z,33.17
2022-11-12T03:30:38.502Z,31.15
2022-11-12T03:33:06.100Z,42.30
2022-11-12T03:35:32.878Z,41.88
2022-11-12T03:38:00.529Z,23.20
2022-11-12T03:40:26.971Z,22.77
2022-11-12T03:42:53.718Z,19.57
2022-11-12T03:45:21.961Z,16.88
2022-11-12T03:47:50.960Z,19.38
2022-11-12T03:50:19.673Z,31.70
2022-11-12T03:52:47.948Z,19.13
2022-11-12T03:55:15.912Z,18.35
2022-11-12T03:57:42.724Z,18.30
2022-11-12T04:00:10.940Z,17.23
2022-11-12T04:02:38.108Z,19.27
2022-11-12T04:05:06.771Z,20.42
2022-11-12T04:07:33.921Z,18.60
2022-11-12T04:10:00.528Z,13.73
2022-11-12T04:12:26.953Z,14.60
2022-11-12T04:14:53.400Z,12.65
2022-11-12T04:17:20.024Z,15.32
2022-11-12T04:19:46.565Z,13.95
2022-11-12T04:22:12.984Z,14.43
2022-11-12T04:24:41.325Z,11.45
2022-11-12T04:27:10.248Z,13.00
2022-11-12T04:29:37.728Z,14.43
2022-11-12T04:32:04.500Z,12.27
2022-11-12T04:34:30.886Z,11.52
2022-11-12T04:36:57.503Z,10.32
2022-11-12T04:39:23.852Z,11.30
2022-11-12T04:41:50.170Z,11.25
2022-11-12T04:44:16.588Z,11.05
2022-11-12T04:46:43.155Z,9.38
2022-11-12T04:49:09.522Z,10.98
2022-11-12T04:51:36.048Z,9.55
2022-11-12T04:54:02.396Z,10.93
2022-11-12T04:56:28.775Z,9.18
2022-11-12T04:58:55.187Z,10.55
2022-11-12T05:01:22.395Z,10.30
2022-11-12T05:03:48.803Z,9.57
2022-11-12T05:06:15.157Z,11.45
2022-11-12T05:08:41.518Z,11.83
2022-11-12T05:11:12.661Z,13.67
2022-11-12T05:13:39.451Z,13.07
2022-11-12T05:16:06.048Z,12.30
2022-11-12T05:18:32.676Z,14.38
2022-11-12T05:20:59.192Z,16.58
2022-11-12T05:23:25.597Z,16.57
2022-11-12T05:25:51.974Z,15.20
2022-11-12T05:28:18.580Z,14.38
2022-11-12T05:30:48.346Z,11.68
2022-11-12T05:33:14.976Z,11.30
2022-11-12T05:35:41.633Z,12.35
2022-11-12T05:38:08.270Z,13.40
2022-11-12T05:40:34.927Z,13.68
2022-11-12T05:43:01.609Z,16.10
2022-11-12T05:45:28.039Z,12.80
2022-11-12T05:47:54.750Z,11.43
2022-11-12T05:50:21.259Z,15.00
2022-11-12T05:52:47.814Z,13.47
2022-11-12T05:55:14.352Z,20.20
2022-11-12T05:57:40.700Z,15.13
2022-11-12T06:00:08.004Z,18.70
2022-11-12T06:02:34.437Z,18.30
2022-11-12T06:05:01.146Z,18.27
2022-11-12T06:07:27.531Z,12.60
2022-11-12T06:09:53.915Z,13.70
2022-11-12T06:12:20.521Z,15.57
2022-11-12T06:14:46.901Z,15.07
2022-11-12T06:17:13.405Z,13.90
2022-11-12T06:19:39.951Z,13.63
2022-11-12T06:22:06.499Z,10.93
2022-11-12T06:24:35.418Z,12.57
2022-11-12T06:27:02.213Z,12.17
2022-11-12T06:29:28.597Z,11.98
2022-11-12T06:31:56.285Z,19.60
2022-11-12T06:34:22.678Z,14.67
2022-11-12T06:36:48.990Z,16.23
2022-11-12T06:39:15.521Z,11.20
2022-11-12T06:41:41.955Z,14.00
2022-11-12T06:44:08.281Z,16.42
2022-11-12T06:46:34.668Z,15.13
2022-11-12T06:49:01.216Z,12.23
2022-11-12T06:51:27.537Z,14.32
2022-11-12T06:53:56.032Z,15.52
2022-11-12T06:56:22.618Z,13.98
2022-11-12T06:58:49.013Z,13.43
2022-11-12T07:01:17.195Z,16.02
2022-11-12T07:03:44.724Z,23.40
2022-11-12T07:06:16.433Z,20.52
2022-11-12T07:08:42.745Z,18.30
2022-11-12T07:11:09.742Z,25.88
2022-11-12T07:13:36.926Z,45.85
2022-11-12T07:16:05.950Z,53.85
2022-11-12T07:18:33.853Z,29.73
2022-11-12T07:21:03.942Z,27.95
2022-11-12T07:23:32.489Z,16.77
2022-11-12T07:26:03.418Z,24.77
2022-11-12T07:30:58.868Z,22.73
2022-11-12T07:33:26.294Z,20.45
2022-11-12T07:36:00.131Z,12.57
2022-11-12T07:38:28.121Z,11.55
2022-11-12T07:41:01.960Z,12.50
2022-11-12T07:43:30.678Z,11.82
2022-11-12T07:46:11.020Z,12.07
2022-11-12T07:48:39.165Z,13.13
2022-11-12T07:51:09.685Z,15.30
2022-11-12T07:53:36.085Z,28.95
2022-11-12T07:56:02.830Z,44.17
2022-11-12T07:58:31.795Z,61.05
2022-11-12T08:00:58.841Z,27.67
2022-11-12T08:03:25.224Z,23.58
2022-11-12T08:05:51.904Z,13.18
2022-11-12T08:08:18.335Z,11.93
2022-11-12T08:10:44.661Z,20.98
2022-11-12T08:13:11.127Z,18.05
2022-11-12T08:15:37.692Z,14.05
2022-11-12T08:18:04.190Z,13.00
2022-11-12T08:20:30.619Z,11.80
2022-11-12T08:22:59.888Z,21.08
2022-11-12T08:25:26.592Z,15.25
2022-11-12T08:27:56.712Z,20.38
2022-11-12T08:30:23.355Z,18.05
2022-11-12T08:32:58.945Z,11.82
2022-11-12T08:35:26.986Z,11.55
2022-11-12T08:38:01.205Z,16.88
2022-11-12T08:40:29.295Z,12.50
2022-11-12T08:42:58.428Z,24.90
2022-11-12T08:45:25.309Z,15.10
2022-11-12T08:47:51.840Z,14.93
2022-11-12T08:50:18.840Z,12.02
2022-11-12T08:52:45.222Z,14.95
2022-11-12T08:55:11.686Z,13.43
2022-11-12T08:57:44.539Z,10.30
2022-11-12T09:00:12.612Z,13.85
2022-11-12T09:02:39.326Z,12.38
2022-11-12T09:05:06.436Z,11.77
2022-11-12T09:07:49.616Z,10.75
2022-11-12T09:10:17.284Z,16.30
2022-11-12T09:12:43.952Z,15.98
2022-11-12T09:17:58.881Z,12.85
2022-11-12T09:20:26.871Z,15.32
2022-11-12T09:22:53.342Z,13.52
2022-11-12T09:25:20.112Z,12.15
2022-11-12T09:27:48.597Z,12.85
2022-11-12T09:30:15.898Z,12.27
2022-11-12T09:32:42.229Z,11.52
2022-11-12T09:35:09.020Z,11.55
2022-11-12T09:37:40.003Z,11.65
2022-11-12T09:40:15.504Z,11.32
2022-11-12T09:42:47.087Z,11.32
2022-11-12T09:45:23.703Z,12.80
2022-11-12T09:47:56.253Z,10.88
2022-11-12T09:50:37.702Z,14.77
2022-11-12T09:53:18.246Z,10.32
2022-11-12T09:55:49.205Z,11.95
2022-11-12T10:00:51.790Z,11.18
2022-11-12T10:03:40.171Z,13.02
2022-11-12T10:06:18.188Z,10.35
2022-11-12T10:09:00.470Z,12.25
2022-11-12T10:11:39.669Z,12.77
2022-11-12T10:14:21.023Z,11.68
2022-11-12T10:17:04.183Z,10.48
2022-11-12T10:20:04.939Z,9.95
2022-11-12T10:22:57.889Z,9.15
2022-11-12T10:25:25.391Z,9.75
2022-11-12T10:27:55.507Z,9.32
2022-11-12T10:30:24.681Z,11.38
2022-11-12T10:32:52.398Z,8.32
2022-11-12T10:35:21.934Z,25.60
2022-11-12T10:38:07.686Z,8.75
2022-11-12T10:40:37.691Z,8.40
2022-11-12T10:43:16.484Z,7.57
2022-11-12T10:45:44.944Z,9.43
2022-11-12T10:48:26.829Z,6.82
2022-11-12T10:50:54.748Z,7.00
2022-11-12T10:53:39.513Z,9.63
2022-11-12T10:56:24.670Z,7.50
2022-11-12T10:59:17.946Z,8.13
2022-11-12T11:01:46.569Z,8.43
2022-11-12T11:04:33.961Z,9.70
2022-11-12T11:07:07.492Z,9.80
2022-11-12T11:09:34.542Z,8.68
2022-11-12T11:12:01.035Z,10.30
2022-11-12T11:14:31.001Z,10.13
2022-11-12T11:17:05.595Z,7.72
2022-11-12T11:19:36.853Z,7.93
2022-11-12T11:22:13.174Z,8.70
2022-11-12T11:24:55.894Z,12.93
2022-11-12T11:27:48.590Z,7.70
2022-11-12T11:30:15.566Z,7.85
2022-11-12T11:33:01.342Z,7.88
2022-11-12T11:35:44.803Z,8.27
2022-11-12T11:38:20.392Z,8.30
2022-11-12T11:41:17.438Z,8.25
2022-11-12T11:43:58.244Z,9.75
2022-11-12T11:46:47.811Z,11.23
2022-11-12T11:49:37.632Z,9.88
2022-11-12T11:52:25.529Z,9.20
2022-11-12T11:55:27.702Z,8.93
2022-11-12T11:58:12.599Z,8.95
2022-11-12T12:00:57.765Z,8.90
2022-11-12T12:04:00.001Z,9.77
2022-11-12T12:06:29.646Z,8.98
2022-11-12T12:09:40.411Z,8.57
2022-11-12T12:12:44.201Z,10.25
2022-11-12T12:15:29.155Z,11.05
2022-11-12T12:18:04.573Z,9.90
2022-11-12T12:20:41.567Z,9.63
2022-11-12T12:23:25.348Z,10.13
2022-11-12T12:25:58.930Z,10.70
2022-11-12T12:28:42.149Z,9.45
2022-11-12T12:31:15.185Z,11.27
2022-11-12T12:33:53.159Z,9.50
2022-11-12T12:36:31.300Z,11.88
2022-11-12T12:39:14.630Z,11.05
2022-11-12T12:41:54.684Z,11.13
2022-11-12T12:44:21.304Z,9.57
2022-11-12T12:46:58.718Z,11.57
2022-11-12T12:49:34.071Z,11.93
2022-11-12T12:52:00.647Z,12.80
2022-11-12T12:54:35.785Z,10.27
2022-11-12T12:57:25.363Z,11.45
2022-11-12T13:00:21.718Z,10.35
2022-11-12T13:02:48.117Z,9.07
2022-11-12T13:05:25.842Z,13.45
2022-11-12T13:07:53.600Z,7.95
2022-11-12T13:10:41.296Z,8.93
2022-11-12T13:13:19.709Z,10.15
2022-11-12T13:15:51.791Z,16.77
2022-11-12T13:18:37.202Z,9.55
2022-11-12T13:21:21.800Z,9.93
2022-11-12T13:23:59.424Z,10.45
2022-11-12T13:26:49.913Z,10.18
2022-11-12T13:29:23.630Z,9.23
2022-11-12T13:32:10.137Z,10.60
2022-11-12T13:34:36.732Z,12.23
2022-11-12T13:37:06.459Z,7.53
2022-11-12T13:39:35.856Z,9.43
2022-11-12T13:42:13.225Z,9.13
2022-11-12T13:44:39.804Z,10.05
2022-11-12T13:47:15.712Z,12.07
2022-11-12T13:49:45.449Z,11.65
2022-11-12T13:52:15.682Z,11.88
2022-11-12T13:54:42.100Z,10.35
2022-11-12T13:57:25.647Z,12.88
2022-11-12T14:00:19.633Z,11.25
2022-11-12T14:02:50.299Z,12.20
2022-11-12T14:05:20.031Z,10.50
2022-11-12T14:07:54.371Z,11.18
2022-11-12T14:10:46.124Z,12.13
2022-11-12T14:13:29.625Z,9.82
2022-11-12T14:16:22.589Z,10.30
2022-11-12T14:19:26.436Z,12.38
2022-11-12T14:22:15.577Z,11.95
2022-11-12T14:24:42.944Z,11.75
2022-11-12T14:27:29.035Z,12.27
2022-11-12T14:30:16.733Z,10.35
2022-11-12T14:32:46.147Z,10.90
2022-11-12T14:35:24.892Z,12.77
2022-11-12T14:38:17.616Z,10.55
2022-11-12T14:40:51.656Z,11.52
2022-11-12T14:43:27.350Z,12.45
2022-11-12T14:45:56.537Z,12.23
2022-11-12T14:48:23.071Z,14.90
2022-11-12T14:50:57.946Z,11.20
2022-11-12T14:53:38.027Z,11.48
2022-11-12T14:56:07.409Z,11.75
2022-11-12T14:58:34.806Z,16.17
2022-11-12T15:02:08.970Z,11.88
2022-11-12T15:04:11.455Z,12.77
2022-11-12T15:06:39.022Z,13.35
2022-11-12T15:09:05.660Z,13.30
2022-11-12T15:11:44.693Z,13.90
2022-11-12T15:14:22.282Z,10.40
2022-11-12T15:16:48.874Z,11.90
2022-11-12T15:19:19.802Z,11.93
2022-11-12T15:24:28.443Z,13.65
2022-11-12T15:26:56.111Z,12.80
2022-11-12T15:29:29.016Z,14.95
2022-11-12T15:32:13.681Z,13.77
2022-11-12T15:34:40.534Z,14.05
2022-11-12T15:37:24.234Z,17.23
2022-11-12T15:39:54.649Z,17.17
2022-11-12T15:42:33.921Z,16.60
2022-11-12T15:45:02.715Z,18.25
2022-11-12T15:47:29.550Z,17.73
2022-11-12T15:49:58.219Z,20.48
2022-11-12T15:52:25.084Z,21.83
2022-11-12T15:54:51.716Z,21.23
2022-11-12T15:57:27.870Z,25.13
2022-11-12T16:00:07.566Z,26.50
2022-11-12T16:02:34.797Z,30.65
2022-11-12T16:05:01.187Z,30.38
2022-11-12T16:07:27.622Z,26.35
2022-11-12T16:09:53.997Z,22.38
2022-11-12T16:12:20.575Z,21.77
2022-11-12T16:14:47.169Z,27.00
2022-11-12T16:17:15.389Z,22.65
2022-11-12T16:19:42.239Z,18.35
2022-11-12T16:22:08.858Z,17.63
2022-11-12T16:24:35.245Z,16.60
2022-11-12T16:27:01.650Z,18.85
2022-11-12T16:29:27.986Z,18.30
2022-11-12T16:31:54.422Z,18.52
2022-11-12T16:34:20.870Z,19.90
2022-11-12T16:36:47.944Z,18.00
2022-11-12T16:39:14.422Z,19.20
2022-11-12T16:41:40.758Z,20.73
2022-11-12T16:44:07.119Z,16.33
2022-11-12T16:46:38.614Z,14.88
2022-11-12T16:49:05.046Z,15.43
2022-11-12T16:51:31.561Z,14.05
2022-11-12T16:53:58.104Z,11.82
2022-11-12T16:56:24.562Z,16.23
2022-11-12T16:58:50.968Z,15.65
2022-11-12T17:01:24.987Z,14.00
2022-11-12T17:03:53.598Z,14.82
2022-11-12T17:06:20.449Z,16.10
2022-11-12T17:08:46.921Z,21.33
2022-11-12T17:11:16.392Z,16.77
2022-11-12T17:13:43.546Z,16.27
2022-11-12T17:16:10.760Z,18.75
2022-11-12T17:18:37.618Z,15.38
2022-11-12T17:21:22.355Z,16.75
2022-11-12T17:23:49.276Z,14.43
2022-11-12T17:26:18.961Z,16.65
2022-11-12T17:28:46.774Z,15.38
2022-11-12T17:31:14.510Z,13.63
2022-11-12T17:33:46.485Z,13.27
2022-11-12T17:36:15.364Z,13.20
2022-11-12T17:38:42.296Z,16.17
2022-11-12T17:41:09.526Z,11.75
2022-11-12T17:43:36.740Z,13.13
2022-11-12T17:46:04.588Z,14.38
2022-11-12T17:48:34.312Z,11.93
2022-11-12T17:51:21.649Z,16.58
2022-11-12T17:53:48.435Z,14.75
2022-11-12T17:56:17.355Z,13.30
2022-11-12T17:58:44.312Z,13.65
2022-11-12T18:01:34.537Z,13.00
2022-11-12T18:04:01.413Z,15.95
2022-11-12T18:06:32.471Z,14.25
2022-11-12T18:09:00.271Z,17.52
2022-11-12T18:11:28.495Z,17.15
2022-11-12T18:13:55.344Z,18.15
2022-11-12T18:16:24.266Z,21.52
2022-11-12T18:18:53.251Z,19.00
2022-11-12T18:21:20.358Z,19.60
2022-11-12T18:23:46.738Z,29.52
2022-11-12T18:26:14.016Z,26.00
2022-11-12T18:28:41.529Z,26.98
2022-11-12T18:31:08.770Z,28.98
2022-11-12T18:33:35.274Z,26.02
2022-11-12T18:36:02.748Z,27.95
2022-11-12T18:38:29.190Z,26.05
2022-11-12T18:41:08.675Z,27.50
2022-11-12T18:43:38.652Z,27.15
2022-11-12T18:46:06.301Z,29.80
2022-11-12T18:48:34.292Z,30.63
2022-11-12T18:51:19.574Z,27.88
2022-11-12T18:53:46.365Z,30.73
2022-11-12T18:56:18.084Z,29.15
2022-11-12T18:58:45.285Z,30.35
2022-11-12T19:01:15.023Z,30.08
2022-11-12T19:03:42.508Z,29.60
2022-11-12T19:06:10.860Z,27.17
2022-11-12T19:08:37.383Z,26.25
2022-11-12T19:11:09.691Z,22.52
2022-11-12T19:13:36.807Z,28.40
2022-11-12T19:16:11.399Z,28.17
2022-11-12T19:18:39.073Z,32.42
2022-11-12T19:21:18.172Z,25.85
2022-11-12T19:23:45.701Z,25.48
2022-11-12T19:26:17.590Z,28.67
2022-11-12T19:28:45.045Z,26.42
2022-11-12T19:31:15.178Z,27.42
2022-11-12T19:33:42.187Z,20.10
2022-11-12T19:36:11.856Z,25.33
2022-11-12T19:38:38.321Z,26.67
2022-11-12T19:41:14.727Z,22.33
2022-11-12T19:43:44.981Z,20.83
2022-11-12T19:46:12.150Z,21.88
2022-11-12T19:48:38.775Z,22.83
2022-11-12T19:51:07.413Z,23.58
2022-11-12T19:53:42.549Z,22.20
2022-11-12T19:56:08.982Z,24.23
2022-11-12T19:58:35.403Z,25.90
2022-11-12T20:01:10.795Z,26.90
2022-11-12T20:03:37.861Z,24.50
2022-11-12T20:06:08.906Z,26.88
2022-11-12T20:08:36.049Z,25.27
2022-11-12T20:11:03.438Z,23.95
2022-11-12T20:13:30.379Z,24.90
2022-11-12T20:15:57.069Z,23.83
2022-11-12T20:18:24.312Z,28.73
2022-11-12T20:20:54.187Z,26.90
2022-11-12T20:23:21.380Z,25.00
2022-11-12T20:25:47.845Z,28.10
2022-11-12T20:28:14.329Z,27.27
2022-11-12T20:30:40.811Z,24.75
2022-11-12T20:33:10.287Z,25.92
2022-11-12T20:35:37.227Z,25.52
2022-11-12T20:38:04.497Z,23.95
2022-11-12T20:40:32.099Z,24.25
2022-11-12T20:42:58.790Z,24.38
2022-11-12T20:45:25.665Z,28.40
2022-11-12T20:47:52.002Z,40.80
2022-11-12T20:50:18.583Z,36.33
2022-11-12T20:52:44.891Z,36.67
2022-11-12T20:55:11.422Z,44.05
2022-11-12T20:57:37.836Z,39.45
2022-11-12T21:00:05.222Z,39.10
2022-11-12T21:02:31.844Z,37.97
2022-11-12T21:04:58.285Z,40.88
2022-11-12T21:07:24.768Z,38.70
2022-11-12T21:09:51.174Z,43.97
2022-11-12T21:12:18.919Z,35.40
2022-11-12T21:14:50.226Z,34.55
2022-11-12T21:17:17.276Z,29.95
2022-11-12T21:19:43.780Z,29.35
2022-11-12T21:22:10.279Z,24.20
2022-11-12T21:24:36.901Z,25.20
2022-11-12T21:27:03.543Z,23.70
2022-11-12T21:29:30.187Z,26.67
2022-11-12T21:31:56.766Z,27.65
2022-11-12T21:34:23.234Z,29.20
2022-11-12T21:36:49.907Z,31.60
2022-11-12T21:39:16.332Z,32.38
2022-11-12T21:41:43.091Z,29.67
2022-11-12T21:44:09.477Z,34.53
2022-11-12T21:46:36.473Z,34.20
2022-11-12T21:49:04.264Z,31.67
2022-11-12T21:51:32.351Z,38.83
2022-11-12T21:54:04.839Z,35.77
2022-11-12T21:56:33.947Z,31.40
2022-11-12T21:59:00.905Z,30.67
2022-11-12T22:01:29.676Z,29.75
2022-11-12T22:03:57.474Z,29.73
2022-11-12T22:06:26.971Z,30.90
2022-11-12T22:08:54.904Z,38.90
2022-11-12T22:11:22.014Z,36.90
2022-11-12T22:13:48.703Z,33.77
2022-11-12T22:16:15.110Z,27.53
2022-11-12T22:18:42.957Z,30.45
2022-11-12T22:21:15.661Z,23.30
2022-11-12T22:23:42.307Z,26.73
2022-11-12T22:26:14.641Z,36.77
2022-11-12T22:28:41.851Z,44.03
2022-11-12T22:31:12.114Z,46.93
2022-11-12T22:33:39.382Z,40.25
2022-11-12T22:36:08.916Z,47.17
2022-11-12T22:38:46.741Z,38.17
2022-11-12T22:41:18.363Z,51.90
2022-11-12T22:43:52.835Z,39.80
2022-11-12T22:46:21.986Z,44.30
2022-11-12T22:48:48.810Z,55.17
2022-11-12T22:51:20.847Z,88.23
2022-11-12T22:53:48.104Z,92.50
2022-11-12T22:56:16.173Z,94.65
2022-11-12T22:58:45.413Z,118.73
2022-11-12T23:01:33.152Z,62.80
2022-11-12T23:04:01.217Z,102.97
2022-11-12T23:06:29.658Z,87.93
2022-11-12T23:08:58.765Z,111.50
2022-11-12T23:11:26.024Z,56.87
2022-11-12T23:13:54.133Z,50.58
2022-11-12T23:16:23.381Z,53.03
2022-11-12T23:18:51.117Z,54.97
2022-11-12T23:21:21.255Z,63.65
2022-11-12T23:23:47.678Z,47.33
2022-11-12T23:26:16.773Z,51.67
2022-11-12T23:28:43.431Z,85.88
2022-11-12T23:31:19.082Z,53.38
2022-11-12T23:33:47.023Z,69.00
2022-11-12T23:36:13.641Z,60.97
2022-11-12T23:38:41.096Z,42.03
2022-11-12T23:41:08.070Z,93.45
2022-11-12T23:43:34.489Z,37.67
2022-11-12T23:46:01.150Z,90.57
2022-11-12T23:48:28.614Z,41.70
2022-11-12T23:51:21.803Z,47.70
2022-11-12T23:53:49.099Z,58.95
2022-11-12T23:56:18.057Z,87.10
2022-11-12T23:58:44.634Z,48.88
